Time;durP1;ratioP1;P1;durP2;ratioP2;P2;SDS_P1;SDS_P2;PMS_P1;PMS_P2;Temp;Humidity;BMP_temperature;BMP_pressure;BME280_temperature;BME280_humidity;BME280_pressure;Samples;Min_cycle;Max_cycle;Signal;HPM_P1;HPM_P2
2023/05/31 00:00:56;;;;;;;;;;;;;;;;;;5095324;28;19924;-62
2023/05/31 00:03:22;;;;;;;;;;;;;;;;;;5095691;28;19920;-62
2023/05/31 00:05:48;;;;;;;;;;;;;;;;;;5095305;28;19920;-62
2023/05/31 00:08:14;;;;;;;;;;;;;;;;;;5095120;28;19935;-62
2023/05/31 00:10:40;;;;;;;;;;;;;;;;;;5077426;28;20030;-62
2023/05/31 00:13:06;;;;;;;;;;;;;;;;;;5095416;28;19924;-62
2023/05/31 00:15:32;;;;;;;;;;;;;;;;;;5095276;28;19920;-62
2023/05/31 00:17:58;;;;;;;;;;;;;;;;;;5095613;28;20309;-62
2023/05/31 00:20:23;;;;;;;;;;;;;;;;;;5077428;28;19931;-62
2023/05/31 00:22:49;;;;;;;;;;;;;;;;;;5094884;28;19927;-62
2023/05/31 00:25:15;;;;;;;;;;;;;;;;;;5093477;28;20409;-62
2023/05/31 00:27:41;;;;;;;;;;;;;;;;;;5075187;28;19955;-62
2023/05/31 00:30:07;;;;;;;;;;;;;;;;;;5091972;28;19928;-62
2023/05/31 00:32:33;;;;;;;;;;;;;;;;;;5095047;28;20430;-62
2023/05/31 00:34:59;;;;;;;;;;;;;;;;;;5095520;28;20054;-62
2023/05/31 00:37:25;;;;;;;;;;;;;;;;;;5094847;28;19974;-62
2023/05/31 00:39:51;;;;;;;;;;;;;;;;;;5095486;28;20345;-62
2023/05/31 00:42:17;;;;;;;;;;;;;;;;;;5095208;28;19930;-62
2023/05/31 00:44:43;;;;;;;;;;;;;;;;;;5094871;28;19948;-62
2023/05/31 00:47:09;;;;;;;;;;;;;;;;;;5094886;28;20290;-62
2023/05/31 00:49:34;;;;;;;;;;;;;;;;;;5095248;28;20336;-62
2023/05/31 00:52:00;;;;;;;;;;;;;;;;;;5094820;28;19920;-62
2023/05/31 00:54:26;;;;;;;;;;;;;;;;;;5095207;28;19928;-62
2023/05/31 00:56:52;;;;;;;;;;;;;;;;;;5095095;28;19920;-62
2023/05/31 00:59:18;;;;;;;;;;;;;;;;;;5094786;28;19920;-62
2023/05/31 01:01:44;;;;;;;;;;;;;;;;;;5095296;28;20061;-61
2023/05/31 01:04:10;;;;;;;;;;;;;;;;;;5076786;28;19930;-62
2023/05/31 01:06:39;;;;;;;;;;;;;;;;;;5093940;28;19934;-62
2023/05/31 01:09:04;;;;;;;;;;;;;;;;;;5092060;28;19928;-62
2023/05/31 01:11:31;;;;;;;;;;;;;;;;;;5091787;28;19928;-62
2023/05/31 01:13:57;;;;;;;;;;;;;;;;;;5091471;28;19935;-62
2023/05/31 01:16:23;;;;;;;;;;;;;;;;;;5091465;28;19971;-62
2023/05/31 01:18:49;;;;;;;;;;;;;;;;;;5091830;28;19959;-62
2023/05/31 01:21:16;;;;;;;;;;;;;;;;;;5091237;28;20344;-62
2023/05/31 01:23:42;;;;;;;;;;;;;;;;;;5091741;28;19977;-62
2023/05/31 01:26:12;;;;;;;;;;;;;;;;;;5082094;28;20410;-62
2023/05/31 01:28:38;;;;;;;;;;;;;;;;;;5075980;28;20506;-62
2023/05/31 01:31:04;;;;;;;;;;;;;;;;;;5091346;28;19927;-62
2023/05/31 01:33:30;;;;;;;;;;;;;;;;;;5091210;28;19924;-62
2023/05/31 01:35:56;;;;;;;;;;;;;;;;;;5090908;28;19931;-62
2023/05/31 01:38:22;;;;;;;;;;;;;;;;;;5091025;28;19920;-62
2023/05/31 01:40:48;;;;;;;;;;;;;;;;;;5091185;28;20434;-62
2023/05/31 01:43:14;;;;;;;;;;;;;;;;;;5091213;28;19924;-62
2023/05/31 01:45:41;;;;;;;;;;;;;;;;;;5091160;28;20297;-61
2023/05/31 01:48:07;;;;;;;;;;;;;;;;;;5091201;28;20073;-61
2023/05/31 01:50:33;;;;;;;;;;;;;;;;;;5090500;28;20521;-61
2023/05/31 01:52:59;;;;;;;;;;;;;;;;;;5090774;28;20285;-62
2023/05/31 01:55:25;;;;;;;;;;;;;;;;;;5091196;28;20461;-62
2023/05/31 01:57:51;;;;;;;;;;;;;;;;;;5090544;28;19931;-62
2023/05/31 02:00:16;;;;;;;;;;;;;;;;;;5091016;28;19951;-62
2023/05/31 02:02:42;;;;;;;;;;;;;;;;;;5090827;28;19920;-62
2023/05/31 02:05:08;;;;;;;;;;;;;;;;;;5090558;28;20038;-61
2023/05/31 02:07:35;;;;;;;;;;;;;;;;;;5090952;28;19930;-61
2023/05/31 02:10:01;;;;;;;;;;;;;;;;;;5091075;28;20136;-62
2023/05/31 02:12:27;;;;;;;;;;;;;;;;;;5090141;28;19928;-62
2023/05/31 02:14:53;;;;;;;;;;;;;;;;;;5090477;28;19920;-62
2023/05/31 02:17:23;;;;;;;;;;;;;;;;;;5090742;28;19924;-62
2023/05/31 02:19:49;;;;;;;;;;;;;;;;;;5090013;28;20389;-62
2023/05/31 02:22:15;;;;;;;;;;;;;;;;;;5090075;28;19920;-62
2023/05/31 02:24:40;;;;;;;;;;;;;;;;;;5090348;28;19934;-62
2023/05/31 02:27:07;;;;;;;;;;;;;;;;;;5073152;28;20406;-62
2023/05/31 02:29:32;;;;;;;;;;;;;;;;;;5081783;28;19924;-61
2023/05/31 02:31:58;;;;;;;;;;;;;;;;;;5090290;28;19924;-61
2023/05/31 02:34:26;;;;;;;;;;;;;;;;;;5090253;28;19920;-61
2023/05/31 02:36:52;;;;;;;;;;;;;;;;;;5089593;28;19931;-61
2023/05/31 02:39:18;;;;;;;;;;;;;;;;;;5089910;28;20367;-61
2023/05/31 02:41:44;;;;;;;;;;;;;;;;;;5090149;28;19931;-61
2023/05/31 02:44:10;;;;;;;;;;;;;;;;;;5071766;28;19924;-61
2023/05/31 02:46:36;;;;;;;;;;;;;;;;;;5090194;28;19969;-61
2023/05/31 02:49:02;;;;;;;;;;;;;;;;;;5089605;28;20009;-62
2023/05/31 02:51:28;;;;;;;;;;;;;;;;;;5071091;28;19927;-62
2023/05/31 02:53:54;;;;;;;;;;;;;;;;;;5089738;28;19920;-62
2023/05/31 02:56:20;;;;;;;;;;;;;;;;;;5090375;28;19920;-62
2023/05/31 02:58:46;;;;;;;;;;;;;;;;;;5089161;28;19950;-62
2023/05/31 03:01:13;;;;;;;;;;;;;;;;;;5089929;28;20011;-62
2023/05/31 03:03:39;;;;;;;;;;;;;;;;;;5089460;28;19926;-62
2023/05/31 03:06:05;;;;;;;;;;;;;;;;;;5089110;28;19920;-62
2023/05/31 03:08:31;;;;;;;;;;;;;;;;;;5089446;28;20397;-62
2023/05/31 03:10:57;;;;;;;;;;;;;;;;;;5089948;28;19928;-61
2023/05/31 03:13:23;;;;;;;;;;;;;;;;;;5089129;28;19920;-61
2023/05/31 03:15:49;;;;;;;;;;;;;;;;;;5089962;28;19931;-61
2023/05/31 03:18:15;;;;;;;;;;;;;;;;;;5089600;28;19920;-61
2023/05/31 03:20:41;;;;;;;;;;;;;;;;;;5089028;28;19924;-61
2023/05/31 03:23:08;;;;;;;;;;;;;;;;;;5089107;28;19974;-61
2023/05/31 03:25:33;;;;;;;;;;;;;;;;;;5084945;28;19936;-61
2023/05/31 03:28:00;;;;;;;;;;;;;;;;;;5068938;28;19928;-61
2023/05/31 03:30:26;;;;;;;;;;;;;;;;;;5088291;28;20302;-61
2023/05/31 03:32:52;;;;;;;;;;;;;;;;;;5070747;28;19924;-61
2023/05/31 03:35:17;;;;;;;;;;;;;;;;;;5088766;28;20385;-61
2023/05/31 03:37:43;;;;;;;;;;;;;;;;;;5089241;28;19927;-61
2023/05/31 03:40:09;;;;;;;;;;;;;;;;;;5089267;28;19920;-61
2023/05/31 03:42:35;;;;;;;;;;;;;;;;;;5088258;28;20463;-61
2023/05/31 03:45:01;;;;;;;;;;;;;;;;;;5089023;28;20019;-61
2023/05/31 03:47:27;;;;;;;;;;;;;;;;;;5089202;28;19931;-61
2023/05/31 03:49:53;;;;;;;;;;;;;;;;;;5088566;28;20060;-61
2023/05/31 03:52:19;;;;;;;;;;;;;;;;;;5088975;28;20027;-61
2023/05/31 03:54:46;;;;;;;;;;;;;;;;;;5088835;28;20014;-61
2023/05/31 03:57:12;;;;;;;;;;;;;;;;;;5070282;28;19943;-61
2023/05/31 03:59:38;;;;;;;;;;;;;;;;;;5088724;28;19920;-61
2023/05/31 04:02:04;;;;;;;;;;;;;;;;;;5088985;28;19928;-61
2023/05/31 04:04:30;;;;;;;;;;;;;;;;;;5088502;28;20445;-61
2023/05/31 04:06:56;;;;;;;;;;;;;;;;;;5088850;28;20405;-61
2023/05/31 04:09:23;;;;;;;;;;;;;;;;;;5089032;28;19924;-61
2023/05/31 04:11:49;;;;;;;;;;;;;;;;;;5088346;28;19980;-61
2023/05/31 04:14:15;;;;;;;;;;;;;;;;;;5089021;28;19924;-61
2023/05/31 04:16:41;;;;;;;;;;;;;;;;;;5088962;28;19927;-61
2023/05/31 04:19:07;;;;;;;;;;;;;;;;;;5088361;28;19949;-61
2023/05/31 04:21:33;;;;;;;;;;;;;;;;;;5088913;28;19920;-61
2023/05/31 04:23:59;;;;;;;;;;;;;;;;;;5088805;28;19931;-61
2023/05/31 04:26:25;;;;;;;;;;;;;;;;;;5076513;28;19932;-61
2023/05/31 04:28:54;;;;;;;;;;;;;;;;;;5056901;28;19977;-61
2023/05/31 04:31:20;;;;;;;;;;;;;;;;;;5088800;28;19928;-61
2023/05/31 04:33:46;;;;;;;;;;;;;;;;;;5087919;28;19927;-61
2023/05/31 04:36:12;;;;;;;;;;;;;;;;;;5088440;28;20385;-61
2023/05/31 04:38:39;;;;;;;;;;;;;;;;;;5070264;28;19974;-61
2023/05/31 04:41:05;;;;;;;;;;;;;;;;;;5088457;28;19921;-61
2023/05/31 04:43:31;;;;;;;;;;;;;;;;;;5093005;28;19920;-62
2023/05/31 04:46:00;;;;;;;;;;;;;;;;;;5094302;28;20022;-62
2023/05/31 04:48:26;;;;;;;;;;;;;;;;;;5093880;28;19935;-62
2023/05/31 04:50:54;;;;;;;;;;;;;;;;;;5093826;28;20278;-62
2023/05/31 04:53:20;;;;;;;;;;;;;;;;;;5093626;28;19930;-62
2023/05/31 04:55:46;;;;;;;;;;;;;;;;;;5093473;28;19920;-62
2023/05/31 04:58:12;;;;;;;;;;;;;;;;;;5093597;28;19924;-61
2023/05/31 05:00:38;;;;;;;;;;;;;;;;;;5094156;28;19924;-62
2023/05/31 05:03:04;;;;;;;;;;;;;;;;;;5093031;28;20522;-62
2023/05/31 05:05:31;;;;;;;;;;;;;;;;;;5093853;28;19924;-62
2023/05/31 05:07:57;;;;;;;;;;;;;;;;;;5093923;28;19928;-62
2023/05/31 05:10:23;;;;;;;;;;;;;;;;;;5093452;28;20182;-62
2023/05/31 05:12:49;;;;;;;;;;;;;;;;;;5093709;28;19924;-62
2023/05/31 05:15:15;;;;;;;;;;;;;;;;;;5093932;28;19920;-62
2023/05/31 05:17:41;;;;;;;;;;;;;;;;;;5093482;28;19931;-62
2023/05/31 05:20:10;;;;;;;;;;;;;;;;;;5093822;28;19924;-62
2023/05/31 05:22:36;;;;;;;;;;;;;;;;;;5093740;28;19927;-62
2023/05/31 05:25:02;;;;;;;;;;;;;;;;;;5092767;28;19924;-61
2023/05/31 05:27:28;;;;;;;;;;;;;;;;;;5073371;28;19921;-61
2023/05/31 05:29:54;;;;;;;;;;;;;;;;;;5070838;28;19928;-61
2023/05/31 05:32:20;;;;;;;;;;;;;;;;;;5092796;28;19939;-62
2023/05/31 05:34:46;;;;;;;;;;;;;;;;;;5093559;28;19924;-61
2023/05/31 05:37:12;;;;;;;;;;;;;;;;;;5093426;28;19919;-62
2023/05/31 05:39:38;;;;;;;;;;;;;;;;;;5075212;28;19920;-62
2023/05/31 05:42:04;;;;;;;;;;;;;;;;;;5093045;28;19920;-62
2023/05/31 05:44:30;;;;;;;;;;;;;;;;;;5093261;28;19959;-62
2023/05/31 05:46:56;;;;;;;;;;;;;;;;;;5093390;28;19978;-62
2023/05/31 05:49:22;;;;;;;;;;;;;;;;;;5074310;28;19932;-62
2023/05/31 05:51:48;;;;;;;;;;;;;;;;;;5092890;28;19923;-62
2023/05/31 05:54:14;;;;;;;;;;;;;;;;;;5092203;28;20015;-62
2023/05/31 05:56:40;;;;;;;;;;;;;;;;;;5092653;28;19924;-62
2023/05/31 05:59:06;;;;;;;;;;;;;;;;;;5093155;28;19920;-62
2023/05/31 06:01:32;;;;;;;;;;;;;;;;;;5093040;28;19926;-62
2023/05/31 06:03:57;;;;;;;;;;;;;;;;;;5092519;28;19928;-62
2023/05/31 06:06:23;;;;;;;;;;;;;;;;;;5092593;28;19924;-62
2023/05/31 06:08:49;;;;;;;;;;;;;;;;;;5092692;28;19967;-61
2023/05/31 06:11:16;;;;;;;;;;;;;;;;;;5092342;28;20003;-62
2023/05/31 06:13:41;;;;;;;;;;;;;;;;;;5092736;28;19927;-62
2023/05/31 06:16:10;;;;;;;;;;;;;;;;;;5092881;28;20701;-62
2023/05/31 06:18:36;;;;;;;;;;;;;;;;;;5091923;28;19921;-62
2023/05/31 06:21:02;;;;;;;;;;;;;;;;;;5092544;28;19924;-62
2023/05/31 06:23:28;;;;;;;;;;;;;;;;;;5074054;28;19927;-62
2023/05/31 06:25:54;;;;;;;;;;;;;;;;;;5091720;28;19924;-62
2023/05/31 06:28:20;;;;;;;;;;;;;;;;;;5090999;28;19936;-62
2023/05/31 06:30:46;;;;;;;;;;;;;;;;;;5092211;28;20443;-62
2023/05/31 06:33:12;;;;;;;;;;;;;;;;;;5090124;28;19979;-62
2023/05/31 06:35:40;;;;;;;;;;;;;;;;;;5084329;28;19964;-62
2023/05/31 06:38:07;;;;;;;;;;;;;;;;;;5090693;28;20464;-63
2023/05/31 06:40:36;;;;;;;;;;;;;;;;;;5091201;28;20031;-63
2023/05/31 06:43:02;;;;;;;;;;;;;;;;;;5091671;28;20681;-59
2023/05/31 06:45:28;;;;;;;;;;;;;;;;;;5089663;28;19928;-60
2023/05/31 06:47:53;;;;;;;;;;;;;;;;;;5089076;28;19924;-60
2023/05/31 06:50:19;;;;;;;;;;;;;;;;;;5091584;28;19949;-60
2023/05/31 06:52:45;;;;;;;;;;;;;;;;;;5091759;28;19920;-60
2023/05/31 06:55:11;;;;;;;;;;;;;;;;;;5091000;28;19924;-60
2023/05/31 06:57:37;;;;;;;;;;;;;;;;;;5086188;28;20011;-60
2023/05/31 07:00:03;;;;;;;;;;;;;;;;;;5091544;28;20045;-60
2023/05/31 07:02:29;;;;;;;;;;;;;;;;;;5090850;28;19939;-59
2023/05/31 07:04:55;;;;;;;;;;;;;;;;;;5091231;28;20251;-59
2023/05/31 07:07:21;;;;;;;;;;;;;;;;;;5090926;28;19924;-59
2023/05/31 07:09:47;;;;;;;;;;;;;;;;;;5090667;28;19932;-60
2023/05/31 07:12:13;;;;;;;;;;;;;;;;;;5091349;28;19920;-60
2023/05/31 07:14:39;;;;;;;;;;;;;;;;;;5091146;28;19946;-60
2023/05/31 07:17:05;;;;;;;;;;;;;;;;;;5090153;28;19931;-58
2023/05/31 07:19:31;;;;;;;;;;;;;;;;;;5091279;28;19924;-58
2023/05/31 07:21:57;;;;;;;;;;;;;;;;;;5072475;28;19924;-60
2023/05/31 07:24:23;;;;;;;;;;;;;;;;;;5090546;28;19970;-59
2023/05/31 07:26:49;;;;;;;;;;;;;;;;;;5081724;28;20325;-59
2023/05/31 07:29:15;;;;;;;;;;;;;;;;;;5080712;28;19928;-58
2023/05/31 07:31:41;;;;;;;;;;;;;;;;;;5090506;28;19946;-60
2023/05/31 07:34:09;;;;;;;;;;;;;;;;;;5090739;28;19928;-59
2023/05/31 07:36:35;;;;;;;;;;;;;;;;;;5090663;28;20370;-60
2023/05/31 07:39:01;;;;;;;;;;;;;;;;;;5089281;28;19989;-60
2023/05/31 07:41:27;;;;;;;;;;;;;;;;;;5090256;28;19928;-59
2023/05/31 07:43:54;;;;;;;;;;;;;;;;;;5090485;28;19924;-60
2023/05/31 07:46:20;;;;;;;;;;;;;;;;;;5088828;28;19963;-60
2023/05/31 07:48:46;;;;;;;;;;;;;;;;;;5090481;28;19975;-60
2023/05/31 07:51:12;;;;;;;;;;;;;;;;;;5089809;28;19924;-60
2023/05/31 07:53:39;;;;;;;;;;;;;;;;;;5089295;28;19920;-60
2023/05/31 07:56:05;;;;;;;;;;;;;;;;;;5090373;28;19927;-60
2023/05/31 07:58:31;;;;;;;;;;;;;;;;;;5089258;28;20375;-60
2023/05/31 08:00:57;;;;;;;;;;;;;;;;;;5089995;28;19924;-60
2023/05/31 08:03:24;;;;;;;;;;;;;;;;;;5081782;28;19939;-61
2023/05/31 08:05:50;;;;;;;;;;;;;;;;;;5090326;28;19975;-61
2023/05/31 08:08:16;;;;;;;;;;;;;;;;;;5089813;28;19978;-60
2023/05/31 08:10:42;;;;;;;;;;;;;;;;;;5085801;28;20763;-62
2023/05/31 08:13:08;;;;;;;;;;;;;;;;;;5088548;28;19997;-61
2023/05/31 08:15:34;;;;;;;;;;;;;;;;;;5074636;28;19924;-61
2023/05/31 08:18:00;;;;;;;;;;;;;;;;;;5088105;28;19963;-61
2023/05/31 08:20:26;;;;;;;;;;;;;;;;;;5085229;28;20011;-62
2023/05/31 08:22:53;;;;;;;;;;;;;;;;;;5075149;28;20044;-62
2023/05/31 08:25:19;;;;;;;;;;;;;;;;;;5087933;28;20011;-61
2023/05/31 08:27:45;;;;;;;;;;;;;;;;;;5072962;28;22356;-61
2023/05/31 08:30:11;;;;;;;;;;;;;;;;;;5091357;28;19924;-61
2023/05/31 08:32:37;;;;;;;;;;;;;;;;;;5086843;28;19928;-61
2023/05/31 08:35:03;;;;;;;;;;;;;;;;;;5091736;28;19986;-61
2023/05/31 08:37:29;;;;;;;;;;;;;;;;;;5092416;28;19986;-61
2023/05/31 08:39:55;;;;;;;;;;;;;;;;;;5078304;28;19928;-62
2023/05/31 08:42:21;;;;;;;;;;;;;;;;;;5088078;28;20061;-61
2023/05/31 08:44:47;;;;;;;;;;;;;;;;;;5073295;28;19935;-62
2023/05/31 08:47:13;;;;;;;;;;;;;;;;;;5087639;28;19947;-62
2023/05/31 08:49:39;;;;;;;;;;;;;;;;;;5087347;28;19928;-61
2023/05/31 08:52:05;;;;;;;;;;;;;;;;;;5081795;28;19924;-61
2023/05/31 08:54:31;;;;;;;;;;;;;;;;;;5090064;28;19923;-61
2023/05/31 08:56:57;;;;;;;;;;;;;;;;;;5075480;28;20044;-61
2023/05/31 08:59:23;;;;;;;;;;;;;;;;;;5085052;28;20016;-61
2023/05/31 09:01:49;;;;;;;;;;;;;;;;;;5081349;28;20015;-61
2023/05/31 09:04:15;;;;;;;;;;;;;;;;;;5074315;28;19955;-61
2023/05/31 09:06:41;;;;;;;;;;;;;;;;;;5080410;28;19931;-60
2023/05/31 09:09:08;;;;;;;;;;;;;;;;;;5081520;28;19933;-60
2023/05/31 09:11:37;;;;;;;;;;;;;;;;;;5084311;28;20367;-59
2023/05/31 09:14:03;;;;;;;;;;;;;;;;;;5090928;28;19920;-60
2023/05/31 09:16:29;;;;;;;;;;;;;;;;;;5060741;28;19972;-60
2023/05/31 09:18:55;;;;;;;;;;;;;;;;;;5090426;28;19920;-60
2023/05/31 09:21:21;;;;;;;;;;;;;;;;;;5083513;28;19972;-61
2023/05/31 09:23:47;;;;;;;;;;;;;;;;;;5078464;28;20015;-61
2023/05/31 09:26:13;;;;;;;;;;;;;;;;;;5080718;28;19924;-61
2023/05/31 09:28:39;;;;;;;;;;;;;;;;;;5090469;28;19982;-61
2023/05/31 09:31:05;;;;;;;;;;;;;;;;;;5088367;28;20002;-61
2023/05/31 09:33:31;;;;;;;;;;;;;;;;;;5088206;28;19924;-61
2023/05/31 09:35:57;;;;;;;;;;;;;;;;;;5081643;28;19928;-61
2023/05/31 09:38:23;;;;;;;;;;;;;;;;;;5082074;28;19931;-61
2023/05/31 09:40:49;;;;;;;;;;;;;;;;;;5085419;28;19924;-61
2023/05/31 09:43:15;;;;;;;;;;;;;;;;;;5086695;28;19920;-61
2023/05/31 09:45:41;;;;;;;;;;;;;;;;;;5089514;28;19930;-61
2023/05/31 09:48:07;;;;;;;;;;;;;;;;;;5086167;28;20264;-61
2023/05/31 09:50:33;;;;;;;;;;;;;;;;;;5083509;28;19928;-60
2023/05/31 09:52:59;;;;;;;;;;;;;;;;;;5081953;28;19928;-61
2023/05/31 09:55:25;;;;;;;;;;;;;;;;;;5069416;28;19971;-60
2023/05/31 09:57:51;;;;;;;;;;;;;;;;;;5076272;28;20017;-61
2023/05/31 10:00:21;;;;;;;;;;;;;;;;;;5084342;28;19928;-61
2023/05/31 10:02:47;;;;;;;;;;;;;;;;;;5081812;28;19924;-61
2023/05/31 10:05:13;;;;;;;;;;;;;;;;;;5089256;28;19981;-61
2023/05/31 10:07:39;;;;;;;;;;;;;;;;;;5082507;28;19921;-61
2023/05/31 10:10:05;;;;;;;;;;;;;;;;;;5082523;28;19928;-62
2023/05/31 10:12:31;;;;;;;;;;;;;;;;;;5086624;28;19924;-62
2023/05/31 10:14:57;;;;;;;;;;;;;;;;;;5087317;28;19935;-62
2023/05/31 10:17:23;;;;;;;;;;;;;;;;;;5075444;28;19931;-61
2023/05/31 10:19:49;;;;;;;;;;;;;;;;;;5089205;28;20010;-61
2023/05/31 10:22:15;;;;;;;;;;;;;;;;;;5084011;28;19999;-62
2023/05/31 10:24:41;;;;;;;;;;;;;;;;;;5050491;28;19932;-61
2023/05/31 10:27:08;;;;;;;;;;;;;;;;;;5056467;28;19963;-62
2023/05/31 10:29:33;;;;;;;;;;;;;;;;;;5061801;28;19975;-61
2023/05/31 10:31:59;;;;;;;;;;;;;;;;;;5067338;28;20413;-61
2023/05/31 10:34:25;;;;;;;;;;;;;;;;;;5060184;28;19924;-61
2023/05/31 10:36:51;;;;;;;;;;;;;;;;;;5068957;28;19921;-61
2023/05/31 10:39:17;;;;;;;;;;;;;;;;;;5066446;28;20039;-61
2023/05/31 10:41:43;;;;;;;;;;;;;;;;;;5063280;28;19951;-61
2023/05/31 10:44:10;;;;;;;;;;;;;;;;;;5056479;28;19925;-61
2023/05/31 10:46:35;;;;;;;;;;;;;;;;;;5067275;28;19924;-61
2023/05/31 10:49:02;;;;;;;;;;;;;;;;;;5058986;28;19924;-61
2023/05/31 10:51:28;;;;;;;;;;;;;;;;;;5069873;28;20424;-61
2023/05/31 10:53:54;;;;;;;;;;;;;;;;;;5070749;28;19921;-62
2023/05/31 10:56:22;;;;;;;;;;;;;;;;;;5071537;28;19920;-62
2023/05/31 10:58:48;;;;;;;;;;;;;;;;;;5069248;28;19946;-63
2023/05/31 11:01:14;;;;;;;;;;;;;;;;;;5071496;28;20003;-63
2023/05/31 11:03:40;;;;;;;;;;;;;;;;;;5070824;28;19920;-63
2023/05/31 11:06:06;;;;;;;;;;;;;;;;;;5070582;28;19947;-62
2023/05/31 11:08:32;;;;;;;;;;;;;;;;;;5071330;28;19998;-62
2023/05/31 11:10:58;;;;;;;;;;;;;;;;;;5071358;28;19925;-62
2023/05/31 11:13:24;;;;;;;;;;;;;;;;;;5070342;28;19921;-62
2023/05/31 11:15:50;;;;;;;;;;;;;;;;;;5070679;28;19930;-62
2023/05/31 11:18:16;;;;;;;;;;;;;;;;;;5071110;28;19920;-62
2023/05/31 11:20:42;;;;;;;;;;;;;;;;;;5070667;28;19924;-62
2023/05/31 11:23:08;;;;;;;;;;;;;;;;;;5070888;28;19928;-62
2023/05/31 11:25:34;;;;;;;;;;;;;;;;;;5082753;28;19928;-62
2023/05/31 11:28:00;;;;;;;;;;;;;;;;;;5090277;28;19928;-62
2023/05/31 11:30:28;;;;;;;;;;;;;;;;;;5090349;28;22457;-63
2023/05/31 11:32:54;;;;;;;;;;;;;;;;;;5090922;28;20014;-63
2023/05/31 11:35:20;;;;;;;;;;;;;;;;;;5090229;28;19920;-62
2023/05/31 11:37:46;;;;;;;;;;;;;;;;;;5091190;28;19920;-63
2023/05/31 11:40:12;;;;;;;;;;;;;;;;;;5091038;28;19924;-61
2023/05/31 11:42:41;;;;;;;;;;;;;;;;;;5090151;28;19924;-62
2023/05/31 11:45:07;;;;;;;;;;;;;;;;;;5072888;28;19920;-62
2023/05/31 11:47:34;;;;;;;;;;;;;;;;;;5090661;28;19924;-62
2023/05/31 11:50:01;;;;;;;;;;;;;;;;;;5090164;28;19928;-62
2023/05/31 11:52:27;;;;;;;;;;;;;;;;;;5081576;28;20006;-62
2023/05/31 11:54:54;;;;;;;;;;;;;;;;;;5090585;28;20015;-64
2023/05/31 11:57:22;;;;;;;;;;;;;;;;;;5071964;28;19978;-65
2023/05/31 11:59:48;;;;;;;;;;;;;;;;;;5090507;28;19924;-64
2023/05/31 12:02:14;;;;;;;;;;;;;;;;;;5090451;28;19931;-64
2023/05/31 12:04:40;;;;;;;;;;;;;;;;;;5089843;28;20050;-63
2023/05/31 12:07:06;;;;;;;;;;;;;;;;;;5090402;28;19920;-64
2023/05/31 12:09:32;;;;;;;;;;;;;;;;;;5090530;28;19935;-63
2023/05/31 12:11:58;;;;;;;;;;;;;;;;;;5089928;28;19943;-63
2023/05/31 12:14:27;;;;;;;;;;;;;;;;;;5089852;28;19935;-60
2023/05/31 12:16:53;;;;;;;;;;;;;;;;;;5090495;28;20015;-62
2023/05/31 12:19:19;;;;;;;;;;;;;;;;;;5090195;28;20023;-61
2023/05/31 12:21:45;;;;;;;;;;;;;;;;;;5090317;28;19919;-61
2023/05/31 12:24:11;;;;;;;;;;;;;;;;;;5089799;28;19969;-61
2023/05/31 12:26:37;;;;;;;;;;;;;;;;;;5089488;28;20011;-62
2023/05/31 12:29:03;;;;;;;;;;;;;;;;;;5090023;28;19931;-62
2023/05/31 12:31:32;;;;;;;;;;;;;;;;;;5090340;28;19981;-62
2023/05/31 12:34:01;;;;;;;;;;;;;;;;;;5090138;28;20614;-62
2023/05/31 12:36:27;;;;;;;;;;;;;;;;;;5089448;28;19968;-64
2023/05/31 12:38:53;;;;;;;;;;;;;;;;;;5090221;28;19924;-63
2023/05/31 12:41:19;;;;;;;;;;;;;;;;;;5090505;28;19963;-63
2023/05/31 12:43:45;;;;;;;;;;;;;;;;;;5089817;28;19920;-63
2023/05/31 12:46:11;;;;;;;;;;;;;;;;;;5090317;28;19924;-63
2023/05/31 12:48:37;;;;;;;;;;;;;;;;;;5090520;28;19928;-63
2023/05/31 12:51:03;;;;;;;;;;;;;;;;;;5077721;28;19947;-63
2023/05/31 12:53:30;;;;;;;;;;;;;;;;;;5090303;28;19969;-63
2023/05/31 12:55:56;;;;;;;;;;;;;;;;;;5090036;28;20289;-63
2023/05/31 12:58:22;;;;;;;;;;;;;;;;;;5089380;28;19970;-63
2023/05/31 13:00:48;;;;;;;;;;;;;;;;;;5090492;28;20270;-62
2023/05/31 13:03:14;;;;;;;;;;;;;;;;;;5091958;28;19920;-63
2023/05/31 13:05:40;;;;;;;;;;;;;;;;;;5074856;28;19924;-63
2023/05/31 13:08:06;;;;;;;;;;;;;;;;;;5058398;28;19931;-62
2023/05/31 13:10:34;;;;;;;;;;;;;;;;;;5093645;28;19942;-63
2023/05/31 13:13:00;;;;;;;;;;;;;;;;;;5093407;28;19920;-63
2023/05/31 13:15:26;;;;;;;;;;;;;;;;;;5093539;28;19924;-63
2023/05/31 13:17:52;;;;;;;;;;;;;;;;;;5093354;28;19932;-63
2023/05/31 13:20:18;;;;;;;;;;;;;;;;;;5074585;28;19928;-63
2023/05/31 13:22:44;;;;;;;;;;;;;;;;;;5093319;28;19979;-63
2023/05/31 13:25:10;;;;;;;;;;;;;;;;;;5093010;28;19934;-62
2023/05/31 13:27:36;;;;;;;;;;;;;;;;;;5092447;28;20010;-63
2023/05/31 13:30:02;;;;;;;;;;;;;;;;;;5092934;28;20034;-63
2023/05/31 13:32:28;;;;;;;;;;;;;;;;;;5074910;28;19924;-64
2023/05/31 13:34:54;;;;;;;;;;;;;;;;;;5093023;28;19927;-63
2023/05/31 13:37:20;;;;;;;;;;;;;;;;;;5093096;28;19924;-64
2023/05/31 13:39:46;;;;;;;;;;;;;;;;;;5093567;28;20296;-63
2023/05/31 13:42:12;;;;;;;;;;;;;;;;;;5092941;28;19920;-63
2023/05/31 13:44:38;;;;;;;;;;;;;;;;;;5093424;28;20388;-64
2023/05/31 13:47:04;;;;;;;;;;;;;;;;;;5092541;28;20302;-64
2023/05/31 13:49:30;;;;;;;;;;;;;;;;;;5092564;28;19935;-63
2023/05/31 13:51:56;;;;;;;;;;;;;;;;;;5093107;28;19927;-63
2023/05/31 13:54:22;;;;;;;;;;;;;;;;;;5093216;28;19924;-63
2023/05/31 13:56:48;;;;;;;;;;;;;;;;;;5092300;28;20293;-63
2023/05/31 13:59:14;;;;;;;;;;;;;;;;;;5092694;28;19920;-64
2023/05/31 14:01:40;;;;;;;;;;;;;;;;;;5092517;28;19931;-62
2023/05/31 14:04:07;;;;;;;;;;;;;;;;;;5091881;28;19920;-62
2023/05/31 14:06:33;;;;;;;;;;;;;;;;;;5091904;28;19920;-62
2023/05/31 14:08:59;;;;;;;;;;;;;;;;;;5074244;28;19928;-62
2023/05/31 14:11:27;;;;;;;;;;;;;;;;;;5091896;28;19920;-62
2023/05/31 14:13:53;;;;;;;;;;;;;;;;;;5091369;28;19920;-62
2023/05/31 14:16:19;;;;;;;;;;;;;;;;;;5073626;28;19935;-62
2023/05/31 14:18:45;;;;;;;;;;;;;;;;;;5091797;28;19924;-62
2023/05/31 14:21:11;;;;;;;;;;;;;;;;;;5092097;28;19924;-62
2023/05/31 14:23:37;;;;;;;;;;;;;;;;;;5092134;28;19933;-62
2023/05/31 14:26:03;;;;;;;;;;;;;;;;;;5082863;28;19947;-62
2023/05/31 14:28:29;;;;;;;;;;;;;;;;;;5056824;28;19924;-62
2023/05/31 14:30:55;;;;;;;;;;;;;;;;;;5092107;28;20011;-62
2023/05/31 14:33:23;;;;;;;;;;;;;;;;;;5091112;28;20011;-63
2023/05/31 14:35:49;;;;;;;;;;;;;;;;;;5073592;28;19926;-63
2023/05/31 14:38:15;;;;;;;;;;;;;;;;;;5091422;28;20011;-63
2023/05/31 14:40:41;;;;;;;;;;;;;;;;;;5091107;28;20450;-64
2023/05/31 14:43:07;;;;;;;;;;;;;;;;;;5091742;28;19930;-64
2023/05/31 14:45:33;;;;;;;;;;;;;;;;;;5090135;28;19920;-64
2023/05/31 14:47:59;;;;;;;;;;;;;;;;;;5088034;28;19931;-64
2023/05/31 14:50:26;;;;;;;;;;;;;;;;;;5089117;28;20023;-64
2023/05/31 14:52:52;;;;;;;;;;;;;;;;;;5089002;28;19924;-64
2023/05/31 14:55:18;;;;;;;;;;;;;;;;;;5088997;28;19967;-64
2023/05/31 14:57:44;;;;;;;;;;;;;;;;;;5088974;28;20401;-64
2023/05/31 15:00:11;;;;;;;;;;;;;;;;;;5089862;28;19925;-64
2023/05/31 15:02:37;;;;;;;;;;;;;;;;;;5089317;28;19927;-64
2023/05/31 15:05:03;;;;;;;;;;;;;;;;;;5089873;28;20423;-64
2023/05/31 15:07:29;;;;;;;;;;;;;;;;;;5089775;28;19931;-64
2023/05/31 15:09:55;;;;;;;;;;;;;;;;;;5089326;28;19924;-64
2023/05/31 15:12:21;;;;;;;;;;;;;;;;;;5089313;28;19927;-64
2023/05/31 15:14:48;;;;;;;;;;;;;;;;;;5089574;28;20441;-64
2023/05/31 15:17:14;;;;;;;;;;;;;;;;;;5089141;28;19924;-64
2023/05/31 15:19:40;;;;;;;;;;;;;;;;;;5089797;28;20604;-64
2023/05/31 15:22:06;;;;;;;;;;;;;;;;;;5071128;28;19946;-64
2023/05/31 15:24:32;;;;;;;;;;;;;;;;;;5088745;28;20005;-64
2023/05/31 15:26:58;;;;;;;;;;;;;;;;;;5072706;28;19924;-64
2023/05/31 15:29:25;;;;;;;;;;;;;;;;;;5079938;28;19924;-64
2023/05/31 15:31:51;;;;;;;;;;;;;;;;;;5088796;28;20374;-64
2023/05/31 15:34:17;;;;;;;;;;;;;;;;;;5089619;28;20333;-64
2023/05/31 15:36:43;;;;;;;;;;;;;;;;;;5089449;28;19924;-64
2023/05/31 15:39:09;;;;;;;;;;;;;;;;;;5088752;28;19932;-65
2023/05/31 15:41:35;;;;;;;;;;;;;;;;;;5089248;28;19920;-64
2023/05/31 15:44:02;;;;;;;;;;;;;;;;;;5089174;28;19924;-64
2023/05/31 15:46:28;;;;;;;;;;;;;;;;;;5089124;28;20023;-64
2023/05/31 15:48:53;;;;;;;;;;;;;;;;;;5088870;28;20023;-64
2023/05/31 15:51:20;;;;;;;;;;;;;;;;;;5088991;28;20386;-64
2023/05/31 15:53:46;;;;;;;;;;;;;;;;;;5088927;28;19924;-64
2023/05/31 15:56:11;;;;;;;;;;;;;;;;;;5088662;28;19920;-64
2023/05/31 15:58:38;;;;;;;;;;;;;;;;;;5088830;28;19981;-64
2023/05/31 16:01:04;;;;;;;;;;;;;;;;;;5089111;28;19924;-64
2023/05/31 16:03:30;;;;;;;;;;;;;;;;;;5088533;28;19924;-64
2023/05/31 16:05:56;;;;;;;;;;;;;;;;;;5088929;28;20279;-64
2023/05/31 16:08:21;;;;;;;;;;;;;;;;;;5088943;28;20387;-64
2023/05/31 16:10:47;;;;;;;;;;;;;;;;;;5089018;28;20011;-64
2023/05/31 16:13:13;;;;;;;;;;;;;;;;;;5089086;28;19943;-64
2023/05/31 16:15:39;;;;;;;;;;;;;;;;;;5089270;28;19931;-64
2023/05/31 16:18:06;;;;;;;;;;;;;;;;;;5070535;28;20356;-64
2023/05/31 16:20:32;;;;;;;;;;;;;;;;;;5088929;28;19970;-64
2023/05/31 16:22:58;;;;;;;;;;;;;;;;;;5088874;28;19924;-64
2023/05/31 16:25:24;;;;;;;;;;;;;;;;;;5084302;28;19925;-64
2023/05/31 16:27:50;;;;;;;;;;;;;;;;;;5068736;28;19971;-64
2023/05/31 16:30:16;;;;;;;;;;;;;;;;;;5086641;28;20410;-64
2023/05/31 16:32:42;;;;;;;;;;;;;;;;;;5088293;28;19931;-64
2023/05/31 16:35:08;;;;;;;;;;;;;;;;;;5088865;28;20015;-64
2023/05/31 16:37:34;;;;;;;;;;;;;;;;;;5089721;28;20367;-64